sensor_id;sensor_type;location;lat;lon;timestamp;pressure;altitude;pressure_sealevel;temperature;humidity
77410;BME280;66481;51.332;22.804;2023-02-12T00:01:34;100611.94;;;0.18;88.09
77410;BME280;66481;51.332;22.804;2023-02-12T00:05:39;100617.38;;;0.05;88.76
77410;BME280;66481;51.332;22.804;2023-02-12T00:09:41;100628.78;;;-0.04;88.31
77410;BME280;66481;51.332;22.804;2023-02-12T00:13:42;100634.94;;;-0.10;88.87
77410;BME280;66481;51.332;22.804;2023-02-12T00:17:43;100648.97;;;-0.22;90.06
77410;BME280;66481;51.332;22.804;2023-02-12T00:21:44;100656.53;;;-0.03;89.27
77410;BME280;66481;51.332;22.804;2023-02-12T00:25:45;100671.09;;;0.09;88.43
77410;BME280;66481;51.332;22.804;2023-02-12T00:29:47;100683.03;;;0.21;87.92
77410;BME280;66481;51.332;22.804;2023-02-12T00:33:48;100676.13;;;0.20;87.69
77410;BME280;66481;51.332;22.804;2023-02-12T00:37:49;100683.84;;;0.24;86.23
77410;BME280;66481;51.332;22.804;2023-02-12T00:41:51;100699.41;;;0.29;86.01
77410;BME280;66481;51.332;22.804;2023-02-12T00:45:52;100715.84;;;0.29;85.67
77410;BME280;66481;51.332;22.804;2023-02-12T00:49:54;100718.53;;;0.26;85.57
77410;BME280;66481;51.332;22.804;2023-02-12T00:53:55;100718.56;;;0.23;85.47
77410;BME280;66481;51.332;22.804;2023-02-12T00:57:56;100726.31;;;0.28;84.93
77410;BME280;66481;51.332;22.804;2023-02-12T01:01:57;100734.09;;;0.29;84.09
77410;BME280;66481;51.332;22.804;2023-02-12T01:05:58;100732.41;;;0.25;83.62
77410;BME280;66481;51.332;22.804;2023-02-12T01:09:59;100743.63;;;0.30;82.49
77410;BME280;66481;51.332;22.804;2023-02-12T01:14:01;100760.06;;;0.34;82.63
77410;BME280;66481;51.332;22.804;2023-02-12T01:18:02;100762.81;;;0.23;83.36
77410;BME280;66481;51.332;22.804;2023-02-12T01:22:03;100762.84;;;0.20;82.49
77410;BME280;66481;51.332;22.804;2023-02-12T01:26:04;100780.13;;;0.26;82.09
77410;BME280;66481;51.332;22.804;2023-02-12T01:30:09;100785.41;;;0.23;81.68
77410;BME280;66481;51.332;22.804;2023-02-12T01:34:10;100781.84;;;0.28;78.47
77410;BME280;66481;51.332;22.804;2023-02-12T01:38:12;100783.59;;;0.28;80.02
77410;BME280;66481;51.332;22.804;2023-02-12T01:42:14;100800.84;;;0.33;78.00
77410;BME280;66481;51.332;22.804;2023-02-12T01:46:15;100793.94;;;0.31;77.72
77410;BME280;66481;51.332;22.804;2023-02-12T01:50:18;100798.22;;;0.36;76.96
77410;BME280;66481;51.332;22.804;2023-02-12T01:54:21;100806.75;;;0.45;76.58
77410;BME280;66481;51.332;22.804;2023-02-12T01:58:27;100802.53;;;0.36;76.70
77410;BME280;66481;51.332;22.804;2023-02-12T02:02:30;100807.72;;;0.39;76.87
77410;BME280;66481;51.332;22.804;2023-02-12T02:06:35;100812.09;;;0.35;78.03
77410;BME280;66481;51.332;22.804;2023-02-12T02:10:39;100813.09;;;0.25;80.38
77410;BME280;66481;51.332;22.804;2023-02-12T02:14:41;100827.94;;;0.18;81.75
77410;BME280;66481;51.332;22.804;2023-02-12T02:40:39;100890.44;;;0.15;81.83
77410;BME280;66481;51.332;22.804;2023-02-12T02:44:47;100898.25;;;0.15;80.16
77410;BME280;66481;51.332;22.804;2023-02-12T02:48:59;100914.72;;;0.17;80.11
77410;BME280;66481;51.332;22.804;2023-02-12T02:53:09;100921.63;;;0.20;81.00
77410;BME280;66481;51.332;22.804;2023-02-12T02:57:18;100919.00;;;0.20;80.67
77410;BME280;66481;51.332;22.804;2023-02-12T03:01:26;100926.78;;;0.23;80.67
77410;BME280;66481;51.332;22.804;2023-02-12T03:05:32;100928.56;;;0.21;79.17
77410;BME280;66481;51.332;22.804;2023-02-12T03:09:39;100939.84;;;0.20;80.40
77410;BME280;66481;51.332;22.804;2023-02-12T03:13:49;100946.81;;;0.16;80.21
77410;BME280;66481;51.332;22.804;2023-02-12T03:17:53;100958.84;;;0.27;79.69
77410;BME280;66481;51.332;22.804;2023-02-12T03:22:01;100966.63;;;0.30;79.82
77410;BME280;66481;51.332;22.804;2023-02-12T03:26:11;100965.78;;;0.28;79.50
77410;BME280;66481;51.332;22.804;2023-02-12T03:30:15;100964.09;;;0.24;79.71
77410;BME280;66481;51.332;22.804;2023-02-12T03:34:37;100983.25;;;0.18;79.82
77410;BME280;66481;51.332;22.804;2023-02-12T03:38:46;101005.81;;;0.16;79.52
77410;BME280;66481;51.332;22.804;2023-02-12T03:43:03;101011.88;;;0.18;79.91
77410;BME280;66481;51.332;22.804;2023-02-12T03:47:15;101029.28;;;0.13;79.32
77410;BME280;66481;51.332;22.804;2023-02-12T03:51:34;101030.16;;;0.10;79.08
77410;BME280;66481;51.332;22.804;2023-02-12T03:55:40;101036.25;;;0.11;79.16
77410;BME280;66481;51.332;22.804;2023-02-12T03:59:43;101048.38;;;0.10;78.89
77410;BME280;66481;51.332;22.804;2023-02-12T04:03:45;101063.16;;;0.07;78.76
77410;BME280;66481;51.332;22.804;2023-02-12T04:07:48;101075.38;;;-0.02;79.48
77410;BME280;66481;51.332;22.804;2023-02-12T04:16:10;101084.03;;;-0.01;78.09
77410;BME280;66481;51.332;22.804;2023-02-12T04:20:53;101094.47;;;-0.06;77.46
77410;BME280;66481;51.332;22.804;2023-02-12T04:25:14;101103.19;;;-0.13;78.33
77410;BME280;66481;51.332;22.804;2023-02-12T04:29:31;101109.25;;;-0.12;77.77
77410;BME280;66481;51.332;22.804;2023-02-12T04:33:45;101120.56;;;-0.15;78.42
77410;BME280;66481;51.332;22.804;2023-02-12T04:37:51;101122.31;;;-0.17;77.62
77410;BME280;66481;51.332;22.804;2023-02-12T04:42:04;101136.19;;;-0.20;79.02
77410;BME280;66481;51.332;22.804;2023-02-12T04:46:06;101148.38;;;-0.28;79.17
77410;BME280;66481;51.332;22.804;2023-02-12T04:50:08;101152.66;;;-0.16;78.11
77410;BME280;66481;51.332;22.804;2023-02-12T04:54:09;101167.41;;;-0.23;77.33
77410;BME280;66481;51.332;22.804;2023-02-12T04:58:10;101162.28;;;-0.30;77.83
77410;BME280;66481;51.332;22.804;2023-02-12T05:02:11;101181.31;;;-0.28;77.91
77410;BME280;66481;51.332;22.804;2023-02-12T05:06:12;101199.59;;;-0.34;76.66
77410;BME280;66481;51.332;22.804;2023-02-12T05:10:13;101217.78;;;-0.39;75.79
77410;BME280;66481;51.332;22.804;2023-02-12T05:14:14;101216.06;;;-0.39;75.00
77410;BME280;66481;51.332;22.804;2023-02-12T05:18:15;101224.69;;;-0.32;74.63
77410;BME280;66481;51.332;22.804;2023-02-12T05:22:16;101229.06;;;-0.42;76.23
77410;BME280;66481;51.332;22.804;2023-02-12T05:26:20;101234.25;;;-0.42;75.66
77410;BME280;66481;51.332;22.804;2023-02-12T05:30:21;101241.22;;;-0.45;76.25
77410;BME280;66481;51.332;22.804;2023-02-12T05:34:22;101240.34;;;-0.47;76.16
77410;BME280;66481;51.332;22.804;2023-02-12T05:38:26;101246.44;;;-0.58;75.45
77410;BME280;66481;51.332;22.804;2023-02-12T05:42:28;101257.75;;;-0.62;75.63
77410;BME280;66481;51.332;22.804;2023-02-12T05:46:30;101269.00;;;-0.60;75.93
77410;BME280;66481;51.332;22.804;2023-02-12T05:50:31;101269.00;;;-0.63;75.25
77410;BME280;66481;51.332;22.804;2023-02-12T05:54:32;101277.69;;;-0.67;74.94
77410;BME280;66481;51.332;22.804;2023-02-12T05:58:33;101270.75;;;-0.66;72.46
77410;BME280;66481;51.332;22.804;2023-02-12T06:02:35;101278.53;;;-0.66;73.02
77410;BME280;66481;51.332;22.804;2023-02-12T06:06:36;101291.56;;;-0.76;72.96
77410;BME280;66481;51.332;22.804;2023-02-12T06:10:37;101304.56;;;-0.77;71.93
77410;BME280;66481;51.332;22.804;2023-02-12T06:14:40;101312.31;;;-0.66;71.78
77410;BME280;66481;51.332;22.804;2023-02-12T06:18:41;101328.81;;;-0.67;72.29
77410;BME280;66481;51.332;22.804;2023-02-12T06:22:42;101334.88;;;-0.65;72.21
77410;BME280;66481;51.332;22.804;2023-02-12T06:26:44;101336.59;;;-0.64;71.69
77410;BME280;66481;51.332;22.804;2023-02-12T06:30:46;101348.72;;;-0.59;71.48
77410;BME280;66481;51.332;22.804;2023-02-12T06:34:48;101366.03;;;-0.58;72.65
77410;BME280;66481;51.332;22.804;2023-02-12T06:38:49;101384.25;;;-0.56;71.73
77410;BME280;66481;51.332;22.804;2023-02-12T06:42:51;101382.50;;;-0.43;72.24
77410;BME280;66481;51.332;22.804;2023-02-12T06:46:53;101377.25;;;-0.28;70.24
77410;BME280;66481;51.332;22.804;2023-02-12T06:50:55;101381.56;;;-0.13;71.02
77410;BME280;66481;51.332;22.804;2023-02-12T06:54:57;101383.22;;;0.10;70.76
77410;BME280;66481;51.332;22.804;2023-02-12T07:09:21;101371.81;;;3.99;60.08
77410;BME280;66481;51.332;22.804;2023-02-12T07:13:22;101371.47;;;5.64;56.09
77410;BME280;66481;51.332;22.804;2023-02-12T07:22:43;101371.13;;;6.99;55.73
77410;BME280;66481;51.332;22.804;2023-02-12T07:26:44;101366.00;;;8.91;49.52
77410;BME280;66481;51.332;22.804;2023-02-12T07:30:46;101370.09;;;9.20;46.26
77410;BME280;66481;51.332;22.804;2023-02-12T07:34:47;101365.31;;;10.50;43.05
77410;BME280;66481;51.332;22.804;2023-02-12T07:38:48;101369.44;;;11.30;40.32
77410;BME280;66481;51.332;22.804;2023-02-12T07:42:54;101376.69;;;11.26;39.65
77410;BME280;66481;51.332;22.804;2023-02-12T07:46:55;101389.28;;;11.21;38.45
77410;BME280;66481;51.332;22.804;2023-02-12T07:50:56;101410.44;;;10.28;38.32
77410;BME280;66481;51.332;22.804;2023-02-12T07:55:02;101409.16;;;9.76;40.02
77410;BME280;66481;51.332;22.804;2023-02-12T07:59:10;101405.13;;;11.40;37.80
77410;BME280;66481;51.332;22.804;2023-02-12T08:03:12;101400.53;;;11.79;35.74
77410;BME280;66481;51.332;22.804;2023-02-12T08:07:14;101395.63;;;12.06;37.10
77410;BME280;66481;51.332;22.804;2023-02-12T08:11:15;101391.28;;;12.37;34.55
77410;BME280;66481;51.332;22.804;2023-02-12T08:15:17;101397.59;;;12.68;37.21
77410;BME280;66481;51.332;22.804;2023-02-12T08:19:18;101400.06;;;13.34;33.75
77410;BME280;66481;51.332;22.804;2023-02-12T08:23:20;101407.31;;;11.67;35.76
77410;BME280;66481;51.332;22.804;2023-02-12T08:27:22;101415.84;;;10.83;36.36
77410;BME280;66481;51.332;22.804;2023-02-12T08:31:25;101404.59;;;13.01;33.24
77410;BME280;66481;51.332;22.804;2023-02-12T08:35:27;101402.72;;;12.55;33.77
77410;BME280;66481;51.332;22.804;2023-02-12T08:39:29;101398.28;;;13.49;32.52
77410;BME280;66481;51.332;22.804;2023-02-12T08:43:30;101399.03;;;13.82;32.48
77410;BME280;66481;51.332;22.804;2023-02-12T08:47:32;101400.13;;;15.07;28.26
77410;BME280;66481;51.332;22.804;2023-02-12T08:51:34;101407.91;;;14.40;29.57
77410;BME280;66481;51.332;22.804;2023-02-12T08:55:35;101416.91;;;13.49;30.87
77410;BME280;66481;51.332;22.804;2023-02-12T08:59:37;101413.09;;;13.07;32.63
77410;BME280;66481;51.332;22.804;2023-02-12T09:03:38;101416.59;;;13.70;32.81
77410;BME280;66481;51.332;22.804;2023-02-12T09:07:42;101422.84;;;14.42;30.32
77410;BME280;66481;51.332;22.804;2023-02-12T09:11:45;101429.69;;;14.32;30.49
77410;BME280;66481;51.332;22.804;2023-02-12T09:15:47;101433.78;;;14.09;30.02
77410;BME280;66481;51.332;22.804;2023-02-12T09:19:49;101438.53;;;14.18;31.99
77410;BME280;66481;51.332;22.804;2023-02-12T09:23:51;101447.47;;;13.42;30.46
77410;BME280;66481;51.332;22.804;2023-02-12T09:27:54;101454.31;;;14.36;32.75
77410;BME280;66481;51.332;22.804;2023-02-12T09:31:56;101459.06;;;15.02;29.43
77410;BME280;66481;51.332;22.804;2023-02-12T09:36:09;101460.97;;;14.43;28.89
77410;BME280;66481;51.332;22.804;2023-02-12T09:44:42;101474.88;;;13.89;30.67
77410;BME280;66481;51.332;22.804;2023-02-12T09:52:55;101476.38;;;14.09;31.06
77410;BME280;66481;51.332;22.804;2023-02-12T09:57:00;101468.31;;;13.34;31.45
77410;BME280;66481;51.332;22.804;2023-02-12T10:01:13;101467.34;;;13.51;30.53
77410;BME280;66481;51.332;22.804;2023-02-12T10:05:36;101465.81;;;13.31;31.60
77410;BME280;66481;51.332;22.804;2023-02-12T10:10:00;101466.69;;;13.15;31.33
77410;BME280;66481;51.332;22.804;2023-02-12T10:28:12;101483.66;;;13.45;31.41
77410;BME280;66481;51.332;22.804;2023-02-12T10:32:27;101484.34;;;12.51;31.98
77410;BME280;66481;51.332;22.804;2023-02-12T10:40:43;101486.81;;;12.72;32.96
77410;BME280;66481;51.332;22.804;2023-02-12T10:44:45;101488.75;;;12.68;31.51
77410;BME280;66481;51.332;22.804;2023-02-12T10:48:51;101483.72;;;12.79;30.78
77410;BME280;66481;51.332;22.804;2023-02-12T10:53:00;101484.38;;;13.32;30.18
77410;BME280;66481;51.332;22.804;2023-02-12T11:01:22;101480.38;;;13.56;30.77
77410;BME280;66481;51.332;22.804;2023-02-12T11:05:28;101484.59;;;12.47;31.24
77410;BME280;66481;51.332;22.804;2023-02-12T11:13:38;101475.72;;;12.13;32.76
77410;BME280;66481;51.332;22.804;2023-02-12T11:17:42;101479.78;;;11.85;32.46
77410;BME280;66481;51.332;22.804;2023-02-12T11:21:44;101476.00;;;11.91;33.28
77410;BME280;66481;51.332;22.804;2023-02-12T11:26:02;101470.00;;;12.04;32.65
77410;BME280;66481;51.332;22.804;2023-02-12T11:30:17;101478.38;;;11.05;34.25
77410;BME280;66481;51.332;22.804;2023-02-12T11:34:19;101466.91;;;10.47;36.47
77410;BME280;66481;51.332;22.804;2023-02-12T11:38:24;101463.25;;;10.29;36.44
77410;BME280;66481;51.332;22.804;2023-02-12T11:42:27;101463.91;;;10.55;36.02
77410;BME280;66481;51.332;22.804;2023-02-12T11:46:30;101466.44;;;9.96;36.35
77410;BME280;66481;51.332;22.804;2023-02-12T11:50:33;101474.91;;;10.05;36.51
77410;BME280;66481;51.332;22.804;2023-02-12T11:54:41;101473.56;;;9.53;37.57
77410;BME280;66481;51.332;22.804;2023-02-12T11:58:42;101482.28;;;9.33;38.98
77410;BME280;66481;51.332;22.804;2023-02-12T12:02:54;101479.19;;;8.53;39.82
77410;BME280;66481;51.332;22.804;2023-02-12T12:07:11;101478.22;;;8.79;41.00
77410;BME280;66481;51.332;22.804;2023-02-12T12:11:19;101470.22;;;8.58;41.21
77410;BME280;66481;51.332;22.804;2023-02-12T12:15:29;101470.84;;;7.36;41.85
77410;BME280;66481;51.332;22.804;2023-02-12T12:20:11;101482.28;;;7.35;42.11
77410;BME280;66481;51.332;22.804;2023-02-12T12:28:47;101458.25;;;7.18;42.95
77410;BME280;66481;51.332;22.804;2023-02-12T12:32:53;101465.63;;;6.76;45.81
77410;BME280;66481;51.332;22.804;2023-02-12T12:49:52;101464.81;;;6.13;48.12
77410;BME280;66481;51.332;22.804;2023-02-12T13:28:41;101466.25;;;4.80;54.07
77410;BME280;66481;51.332;22.804;2023-02-12T13:33:06;101470.66;;;4.32;55.51
77410;BME280;66481;51.332;22.804;2023-02-12T13:37:15;101472.44;;;4.32;56.63
77410;BME280;66481;51.332;22.804;2023-02-12T13:41:17;101470.09;;;4.18;55.28
77410;BME280;66481;51.332;22.804;2023-02-12T13:53:48;101493.75;;;3.62;57.33
77410;BME280;66481;51.332;22.804;2023-02-12T13:58:47;101491.22;;;3.57;55.73
77410;BME280;66481;51.332;22.804;2023-02-12T14:02:43;101490.41;;;3.54;54.25
77410;BME280;66481;51.332;22.804;2023-02-12T14:06:58;101483.63;;;3.41;54.70
77410;BME280;66481;51.332;22.804;2023-02-12T14:11:08;101488.38;;;3.15;55.65
77410;BME280;66481;51.332;22.804;2023-02-12T14:23:44;101491.78;;;2.52;60.20
77410;BME280;66481;51.332;22.804;2023-02-12T14:37:10;101478.06;;;2.32;62.55
77410;BME280;66481;51.332;22.804;2023-02-12T14:41:32;101479.84;;;2.30;62.92
77410;BME280;66481;51.332;22.804;2023-02-12T14:45:35;101490.53;;;2.10;63.51
77410;BME280;66481;51.332;22.804;2023-02-12T14:49:47;101488.78;;;2.07;63.39
77410;BME280;66481;51.332;22.804;2023-02-12T14:53:52;101501.09;;;1.94;63.93
77410;BME280;66481;51.332;22.804;2023-02-12T14:57:55;101503.78;;;1.83;65.22
77410;BME280;66481;51.332;22.804;2023-02-12T15:01:59;101498.66;;;1.76;64.20
77410;BME280;66481;51.332;22.804;2023-02-12T15:06:20;101505.72;;;1.61;65.09
77410;BME280;66481;51.332;22.804;2023-02-12T15:10:28;101506.75;;;1.40;65.46
77410;BME280;66481;51.332;22.804;2023-02-12T15:14:34;101505.13;;;1.19;65.77
77410;BME280;66481;51.332;22.804;2023-02-12T15:22:41;101507.94;;;0.84;67.14
77410;BME280;66481;51.332;22.804;2023-02-12T15:26:48;101525.34;;;0.72;67.89
77410;BME280;66481;51.332;22.804;2023-02-12T15:30:52;101534.94;;;0.55;68.02
77410;BME280;66481;51.332;22.804;2023-02-12T15:34:54;101537.59;;;0.38;69.29
77410;BME280;66481;51.332;22.804;2023-02-12T15:38:59;101542.81;;;0.26;69.73
77410;BME280;66481;51.332;22.804;2023-02-12T15:43:04;101549.78;;;0.27;69.23
77410;BME280;66481;51.332;22.804;2023-02-12T15:47:13;101560.19;;;0.25;70.50
77410;BME280;66481;51.332;22.804;2023-02-12T15:55:25;101557.63;;;-0.01;71.06
77410;BME280;66481;51.332;22.804;2023-02-12T15:59:27;101563.69;;;0.04;72.05
77410;BME280;66481;51.332;22.804;2023-02-12T16:03:32;101559.34;;;-0.02;72.15
77410;BME280;66481;51.332;22.804;2023-02-12T16:07:36;101559.34;;;-0.23;72.76
77410;BME280;66481;51.332;22.804;2023-02-12T16:11:43;101561.06;;;-0.38;73.92
77410;BME280;66481;51.332;22.804;2023-02-12T16:16:05;101560.16;;;-0.50;74.66
77410;BME280;66481;51.332;22.804;2023-02-12T16:29:49;101581.81;;;-0.59;75.13
77410;BME280;66481;51.332;22.804;2023-02-12T16:33:56;101587.00;;;-0.70;76.44
77410;BME280;66481;51.332;22.804;2023-02-12T16:38:47;101585.28;;;-0.71;76.34
77410;BME280;66481;51.332;22.804;2023-02-12T16:46:49;101608.63;;;-0.76;76.89
77410;BME280;66481;51.332;22.804;2023-02-12T16:50:57;101606.88;;;-0.80;77.44
77410;BME280;66481;51.332;22.804;2023-02-12T16:54:59;101601.66;;;-0.95;78.23
77410;BME280;66481;51.332;22.804;2023-02-12T16:59:02;101597.31;;;-0.93;78.04
77410;BME280;66481;51.332;22.804;2023-02-12T17:03:05;101595.59;;;-0.82;77.86
77410;BME280;66481;51.332;22.804;2023-02-12T17:07:23;101592.13;;;-0.93;78.18
77410;BME280;66481;51.332;22.804;2023-02-12T17:11:28;101603.34;;;-0.97;78.76
77410;BME280;66481;51.332;22.804;2023-02-12T17:16:05;101581.66;;;-1.02;78.71
77410;BME280;66481;51.332;22.804;2023-02-12T17:20:02;101566.09;;;-1.05;79.33
77410;BME280;66481;51.332;22.804;2023-02-12T17:24:25;101585.06;;;-1.20;80.26
77410;BME280;66481;51.332;22.804;2023-02-12T17:28:28;101598.03;;;-1.22;79.22
77410;BME280;66481;51.332;22.804;2023-02-12T17:32:31;101594.59;;;-1.16;79.81
77410;BME280;66481;51.332;22.804;2023-02-12T17:36:33;101594.56;;;-1.24;79.15
77410;BME280;66481;51.332;22.804;2023-02-12T17:40:37;101594.50;;;-1.35;79.89
77410;BME280;66481;51.332;22.804;2023-02-12T17:44:42;101574.53;;;-1.46;80.41
77410;BME280;66481;51.332;22.804;2023-02-12T17:48:44;101558.81;;;-1.66;81.88
77410;BME280;66481;51.332;22.804;2023-02-12T18:08:29;101516.47;;;-1.62;81.30
77410;BME280;66481;51.332;22.804;2023-02-12T18:12:33;101521.66;;;-1.59;80.52
77410;BME280;66481;51.332;22.804;2023-02-12T18:16:34;101513.88;;;-1.62;80.18
77410;BME280;66481;51.332;22.804;2023-02-12T18:20:39;101513.91;;;-1.53;79.75
77410;BME280;66481;51.332;22.804;2023-02-12T18:24:42;101528.66;;;-1.52;80.82
77410;BME280;66481;51.332;22.804;2023-02-12T18:28:46;101532.94;;;-1.54;80.41
77410;BME280;66481;51.332;22.804;2023-02-12T18:32:49;101547.66;;;-1.56;80.56
77410;BME280;66481;51.332;22.804;2023-02-12T18:36:52;101554.59;;;-1.54;80.43
77410;BME280;66481;51.332;22.804;2023-02-12T18:40:54;101558.81;;;-1.71;81.04
77410;BME280;66481;51.332;22.804;2023-02-12T18:44:55;101553.44;;;-1.96;81.97
77410;BME280;66481;51.332;22.804;2023-02-12T18:48:58;101562.00;;;-2.04;83.25
77410;BME280;66481;51.332;22.804;2023-02-12T18:53:00;101552.63;;;-1.90;81.61
77410;BME280;66481;51.332;22.804;2023-02-12T18:57:02;101555.22;;;-1.92;81.57
77410;BME280;66481;51.332;22.804;2023-02-12T19:01:13;101555.22;;;-1.90;81.88
77410;BME280;66481;51.332;22.804;2023-02-12T19:05:17;101562.03;;;-2.01;82.21
77410;BME280;66481;51.332;22.804;2023-02-12T19:09:22;101558.50;;;-2.10;82.28
77410;BME280;66481;51.332;22.804;2023-02-12T19:13:25;101563.66;;;-2.16;83.57
77410;BME280;66481;51.332;22.804;2023-02-12T19:17:27;101562.81;;;-2.12;83.09
77410;BME280;66481;51.332;22.804;2023-02-12T19:21:29;101547.31;;;-2.07;83.58
77410;BME280;66481;51.332;22.804;2023-02-12T19:25:36;101551.59;;;-2.12;83.82
77410;BME280;66481;51.332;22.804;2023-02-12T19:33:58;101529.03;;;-2.21;84.23
77410;BME280;66481;51.332;22.804;2023-02-12T19:38:00;101529.94;;;-2.16;84.31
77410;BME280;66481;51.332;22.804;2023-02-12T19:42:04;101541.94;;;-2.27;84.65
77410;BME280;66481;51.332;22.804;2023-02-12T19:46:10;101531.56;;;-2.27;84.81
77410;BME280;66481;51.332;22.804;2023-02-12T19:50:11;101524.78;;;-2.11;84.16
77410;BME280;66481;51.332;22.804;2023-02-12T19:54:14;101520.53;;;-2.03;83.64
77410;BME280;66481;51.332;22.804;2023-02-12T19:58:21;101535.38;;;-1.83;82.88
77410;BME280;66481;51.332;22.804;2023-02-12T20:02:24;101529.31;;;-1.84;82.53
77410;BME280;66481;51.332;22.804;2023-02-12T20:06:29;101533.53;;;-2.00;83.37
77410;BME280;66481;51.332;22.804;2023-02-12T20:10:32;101530.03;;;-2.03;83.67
77410;BME280;66481;51.332;22.804;2023-02-12T20:14:35;101527.47;;;-2.00;83.73
77410;BME280;66481;51.332;22.804;2023-02-12T20:18:38;101521.44;;;-1.98;84.28
77410;BME280;66481;51.332;22.804;2023-02-12T20:22:40;101519.75;;;-1.91;83.68
77410;BME280;66481;51.332;22.804;2023-02-12T20:26:42;101507.69;;;-1.84;83.53
77410;BME280;66481;51.332;22.804;2023-02-12T20:30:45;101516.38;;;-1.73;83.20
77410;BME280;66481;51.332;22.804;2023-02-12T20:34:50;101511.22;;;-1.75;82.96
77410;BME280;66481;51.332;22.804;2023-02-12T20:38:54;101510.28;;;-1.84;83.09
77410;BME280;66481;51.332;22.804;2023-02-12T20:42:59;101493.88;;;-1.83;83.26
77410;BME280;66481;51.332;22.804;2023-02-12T20:47:01;101497.31;;;-1.84;83.69
77410;BME280;66481;51.332;22.804;2023-02-12T20:51:13;101498.16;;;-1.88;84.13
77410;BME280;66481;51.332;22.804;2023-02-12T20:55:15;101483.47;;;-1.86;84.33
77410;BME280;66481;51.332;22.804;2023-02-12T20:59:16;101473.06;;;-1.91;84.66
77410;BME280;66481;51.332;22.804;2023-02-12T21:03:19;101465.31;;;-1.86;84.23
77410;BME280;66481;51.332;22.804;2023-02-12T21:07:22;101473.97;;;-1.83;83.97
77410;BME280;66481;51.332;22.804;2023-02-12T21:11:25;101476.56;;;-1.84;83.86
77410;BME280;66481;51.332;22.804;2023-02-12T21:15:29;101467.03;;;-1.90;83.53
77410;BME280;66481;51.332;22.804;2023-02-12T21:19:30;101465.28;;;-1.91;84.26
77410;BME280;66481;51.332;22.804;2023-02-12T21:23:33;101456.66;;;-1.85;84.17
77410;BME280;66481;51.332;22.804;2023-02-12T21:27:34;101461.81;;;-1.87;83.93
77410;BME280;66481;51.332;22.804;2023-02-12T21:31:43;101450.63;;;-1.81;84.17
77410;BME280;66481;51.332;22.804;2023-02-12T21:35:45;101457.56;;;-1.76;84.13
77410;BME280;66481;51.332;22.804;2023-02-12T21:39:47;101448.94;;;-1.70;84.01
77410;BME280;66481;51.332;22.804;2023-02-12T21:43:52;101448.97;;;-1.68;83.68
77410;BME280;66481;51.332;22.804;2023-02-12T21:47:53;101450.72;;;-1.60;84.03
77410;BME280;66481;51.332;22.804;2023-02-12T21:51:57;101442.09;;;-1.57;83.72
77410;BME280;66481;51.332;22.804;2023-02-12T21:56:03;101460.25;;;-1.54;82.92
77410;BME280;66481;51.332;22.804;2023-02-12T22:00:07;101449.88;;;-1.60;83.38
77410;BME280;66481;51.332;22.804;2023-02-12T22:04:09;101436.03;;;-1.62;84.13
77410;BME280;66481;51.332;22.804;2023-02-12T22:08:12;101460.28;;;-1.51;84.45
77410;BME280;66481;51.332;22.804;2023-02-12T22:12:13;101449.09;;;-1.36;84.10
77410;BME280;66481;51.332;22.804;2023-02-12T22:16:17;101456.09;;;-1.10;83.94
77410;BME280;66481;51.332;22.804;2023-02-12T22:20:21;101451.78;;;-0.88;84.04
77410;BME280;66481;51.332;22.804;2023-02-12T22:24:23;101449.22;;;-0.78;83.82
77410;BME280;66481;51.332;22.804;2023-02-12T22:28:25;101458.78;;;-0.67;83.47
77410;BME280;66481;51.332;22.804;2023-02-12T22:32:32;101445.75;;;-0.50;83.40
77410;BME280;66481;51.332;22.804;2023-02-12T22:36:35;101444.91;;;-0.34;82.85
77410;BME280;66481;51.332;22.804;2023-02-12T22:40:37;101449.22;;;-0.24;83.04
77410;BME280;66481;51.332;22.804;2023-02-12T22:44:40;101438.81;;;-0.22;82.54
77410;BME280;66481;51.332;22.804;2023-02-12T22:48:47;101432.75;;;-0.10;82.46
77410;BME280;66481;51.332;22.804;2023-02-12T22:52:49;101431.00;;;-0.10;82.92
77410;BME280;66481;51.332;22.804;2023-02-12T22:56:51;101430.06;;;0.07;82.76
77410;BME280;66481;51.332;22.804;2023-02-12T23:00:52;101426.63;;;0.14;83.24
77410;BME280;66481;51.332;22.804;2023-02-12T23:04:53;101419.66;;;0.14;83.00
77410;BME280;66481;51.332;22.804;2023-02-12T23:08:58;101421.38;;;0.25;82.42
77410;BME280;66481;51.332;22.804;2023-02-12T23:13:01;101408.34;;;0.15;83.77
77410;BME280;66481;51.332;22.804;2023-02-12T23:17:03;101416.16;;;0.26;83.49
77410;BME280;66481;51.332;22.804;2023-02-12T23:21:07;101410.91;;;0.32;83.44
77410;BME280;66481;51.332;22.804;2023-02-12T23:25:09;101409.13;;;0.42;83.83
77410;BME280;66481;51.332;22.804;2023-02-12T23:29:12;101412.66;;;0.36;84.20
77410;BME280;66481;51.332;22.804;2023-02-12T23:33:13;101403.03;;;0.43;83.84
77410;BME280;66481;51.332;22.804;2023-02-12T23:37:15;101398.72;;;0.42;84.17
77410;BME280;66481;51.332;22.804;2023-02-12T23:41:16;101399.63;;;0.32;84.15
77410;BME280;66481;51.332;22.804;2023-02-12T23:45:17;101394.44;;;0.32;84.69
77410;BME280;66481;51.332;22.804;2023-02-12T23:49:19;101385.75;;;0.31;84.93
77410;BME280;66481;51.332;22.804;2023-02-12T23:53:20;101370.16;;;0.27;84.71
77410;BME280;66481;51.332;22.804;2023-02-12T23:57:22;101386.56;;;0.38;85.59
